M/V Frank Stegbauer — WCX7185 — position and weather

sailwx.info

Track history (hours):
 
Tides and Currents Weather Stations Pressure Air Temp Water Temp Dewpoint Dewpoint Depression Visibility Wind Speed Wind Dir Waves Ship Positions

M/V Frank Stegbauer

Owner: SOUTHERN TOWING COMPANY LLC., MEMPHIS, TN. More information available from US FCC via Universal Licensing System and Coast Guard Vessel Documentation Center.

Last reported at 2018-Jan-20 10:24 UTC. Time now 2018-Feb-22 10:53 UTC.
Position N 32°41' W 091°05'.
Warning: this ship's position is 33 days out of date.

Length 40 m; draft 8.9 m.

MMSI: 366917110.

Date/timePositionNaut miles runAvg speedWind from/ knotsBaromVisibWave heightAir tempDewpointWater temp
2018-Jan-20 10:24N 32°41' W 091°05'2 4.5
2018-Jan-20 09:55N 32°40' W 091°07'2 4.0
2018-Jan-20 09:18N 32°38' W 091°09'1 3.9
2018-Jan-20 09:00N 32°37' W 091°09'1 1.7
2018-Jan-20 08:29N 32°36' W 091°09'1 2.9
2018-Jan-20 08:00N 32°35' W 091°08'2 4.6
2018-Jan-20 07:30N 32°34' W 091°06'3 4.6
2018-Jan-20 06:49N 32°31' W 091°07'2 5.3
2018-Jan-20 06:30N 32°29' W 091°07'3 5.0
2018-Jan-20 06:00N 32°27' W 091°05'2 4.9
2018-Jan-20 05:30N 32°26' W 091°02'2 4.5
2018-Jan-20 05:00N 32°25' W 090°60'2 3.7
2018-Jan-20 04:30N 32°23' W 090°60'2 4.0
2018-Jan-20 04:00N 32°21' W 090°60'2 3.8
2018-Jan-20 03:29N 32°21' W 090°57'1 1.8
2018-Jan-20 03:00N 32°21' W 090°56'2 4.4
2018-Jan-20 02:30N 32°20' W 090°54'2 4.4
2018-Jan-20 02:00N 32°18' W 090°55'2 3.5
2018-Jan-20 01:30N 32°17' W 090°57'2 4.6
2018-Jan-20 01:00N 32°15' W 090°59'2 4.5
2018-Jan-20 00:30N 32°13' W 090°59'2 4.7
2018-Jan-20 00:00N 32°11' W 090°60'2 4.5
2018-Jan-19 23:30N 32°09' W 091°00'2 3.9
2018-Jan-19 23:00N 32°07' W 091°02'3 4.6
2018-Jan-19 22:21N 32°08' W 091°05'1 4.1
2018-Jan-19 22:00N 32°07' W 091°07'6 0.9
2018-Jan-19 15:29N 32°02' W 091°04'  
Track history (hours):
 
Tides and Currents Weather Stations Pressure Air Temp Water Temp Dewpoint Dewpoint Depression Visibility Wind Speed Wind Dir Waves Ship Positions

M/V Frank Stegbauer

Owner: SOUTHERN TOWING COMPANY LLC., MEMPHIS, TN. More information available from US FCC via Universal Licensing System and Coast Guard Vessel Documentation Center.

Last reported at 2018-Jan-20 10:24 UTC. Time now 2018-Feb-22 10:53 UTC.
Position N 32°41' W 091°05'.
Warning: this ship's position is 33 days out of date.

Length 40 m; draft 8.9 m.

MMSI: 366917110.

Date/timePositionNaut miles runAvg speedWind from/ knotsBaromVisibWave heightAir tempDewpointWater temp
2018-Jan-20 10:24N 32°41' W 091°05'2 4.5
2018-Jan-20 09:55N 32°40' W 091°07'2 4.0
2018-Jan-20 09:18N 32°38' W 091°09'1 3.9
2018-Jan-20 09:00N 32°37' W 091°09'1 1.7
2018-Jan-20 08:29N 32°36' W 091°09'1 2.9
2018-Jan-20 08:00N 32°35' W 091°08'2 4.6
2018-Jan-20 07:30N 32°34' W 091°06'3 4.6
2018-Jan-20 06:49N 32°31' W 091°07'2 5.3
2018-Jan-20 06:30N 32°29' W 091°07'3 5.0
2018-Jan-20 06:00N 32°27' W 091°05'2 4.9
2018-Jan-20 05:30N 32°26' W 091°02'2 4.5
2018-Jan-20 05:00N 32°25' W 090°60'2 3.7
2018-Jan-20 04:30N 32°23' W 090°60'2 4.0
2018-Jan-20 04:00N 32°21' W 090°60'2 3.8
2018-Jan-20 03:29N 32°21' W 090°57'1 1.8
2018-Jan-20 03:00N 32°21' W 090°56'2 4.4
2018-Jan-20 02:30N 32°20' W 090°54'2 4.4
2018-Jan-20 02:00N 32°18' W 090°55'2 3.5
2018-Jan-20 01:30N 32°17' W 090°57'2 4.6
2018-Jan-20 01:00N 32°15' W 090°59'2 4.5
2018-Jan-20 00:30N 32°13' W 090°59'2 4.7
2018-Jan-20 00:00N 32°11' W 090°60'2 4.5
2018-Jan-19 23:30N 32°09' W 091°00'2 3.9
2018-Jan-19 23:00N 32°07' W 091°02'3 4.6
2018-Jan-19 22:21N 32°08' W 091°05'1 4.1
2018-Jan-19 22:00N 32°07' W 091°07'6 0.9
2018-Jan-19 15:29N 32°02' W 091°04'  

Dump ship's entire track history